Startpagina
METAR-TAF:

METAR-TAF

Vliegvelden :

Beauvais, Frankrijk

Aéroport de Paris-Beauvais-Tillé

breedte: 49-28N, lengte: 002-07E, hoogte: 109 m

Actueel weer

Dit bericht is 18 minuten geleden gemaakt, om 18:30 UTC
Wind 8 kt uit het westen
Temperatuur 19°C
Vochtigheid 56%
Druk 1010 hPa
Zicht 10 km of meer
geen wolken onder 1500 m en geen cumulonimbus

METAR: LFOB 271830Z AUTO 27008KT CAVOK 19/10 Q1010 NOSIG

Tijdstip: 20:48 (18:48 UTC)

Verwachting

Dit bericht is 1 uur en het 48 minuten geleden gemaakt, om 17:00 UTC
Verwachting geldig van 27 om 18 UTC tot 28 om 18 UTC
Wind 8 kt uit het westen
Zicht 10 km of meer
Verspreide wolken op 3000 ft
Tijdelijke
van 28 om 03 UTC tot 28 om 07 UTC
Gebroken wolken op 1200 ft

TAF: LFOB 271700Z 2718/2818 26008KT 9999 SCT030 TEMPO 2803/2807 BKN012

Waarnemingen en weersverwachtingen van meer dan 4000 vliegvelden (METAR en TAF).

De beschikbare stations zijn de gele en rode punten op de kaart.

Ga met uw muis naar het station om de naam te zien.

Klik dan om waarnemingen en weersverwachtingen te zien.

kaart wijzigen: klik op de groene knoppen met een zwart kruis om in te zoomen, op de groene knop met een streepje om uit te zoomen of op de groene pijlen voor aangrenzende kaarten.


METAR-TAF: